sensor_id;sensor_type;location;lat;lon;timestamp;P1;durP1;ratioP1;P2;durP2;ratioP2
7883;SDS011;3987;51.458;7.238;2023-06-19T00:03:45;5.37;;;5.07;;
7883;SDS011;3987;51.458;7.238;2023-06-19T00:18:46;4.87;;;4.77;;
7883;SDS011;3987;51.458;7.238;2023-06-19T00:33:46;5.03;;;4.93;;
7883;SDS011;3987;51.458;7.238;2023-06-19T00:48:50;5.23;;;5.03;;
7883;SDS011;3987;51.458;7.238;2023-06-19T01:03:52;5.07;;;4.97;;
7883;SDS011;3987;51.458;7.238;2023-06-19T01:18:52;5.00;;;4.90;;
7883;SDS011;3987;51.458;7.238;2023-06-19T01:33:53;4.80;;;4.70;;
7883;SDS011;3987;51.458;7.238;2023-06-19T01:48:54;4.50;;;4.40;;
7883;SDS011;3987;51.458;7.238;2023-06-19T02:03:54;4.73;;;4.63;;
7883;SDS011;3987;51.458;7.238;2023-06-19T02:18:55;4.80;;;4.70;;
7883;SDS011;3987;51.458;7.238;2023-06-19T02:33:56;5.57;;;5.37;;
7883;SDS011;3987;51.458;7.238;2023-06-19T02:48:57;5.57;;;5.40;;
7883;SDS011;3987;51.458;7.238;2023-06-19T03:03:58;5.97;;;5.60;;
7883;SDS011;3987;51.458;7.238;2023-06-19T03:18:58;5.60;;;5.23;;
7883;SDS011;3987;51.458;7.238;2023-06-19T03:33:59;3.77;;;3.67;;
7883;SDS011;3987;51.458;7.238;2023-06-19T03:49:00;3.73;;;3.57;;
7883;SDS011;3987;51.458;7.238;2023-06-19T04:04:02;3.50;;;3.40;;
7883;SDS011;3987;51.458;7.238;2023-06-19T04:19:03;4.03;;;3.83;;
7883;SDS011;3987;51.458;7.238;2023-06-19T04:34:04;3.40;;;3.03;;
7883;SDS011;3987;51.458;7.238;2023-06-19T04:49:05;2.70;;;2.70;;
7883;SDS011;3987;51.458;7.238;2023-06-19T05:04:05;3.20;;;3.00;;
7883;SDS011;3987;51.458;7.238;2023-06-19T05:19:06;3.30;;;3.20;;
7883;SDS011;3987;51.458;7.238;2023-06-19T05:34:06;2.90;;;2.80;;
7883;SDS011;3987;51.458;7.238;2023-06-19T05:49:07;2.60;;;2.40;;
7883;SDS011;3987;51.458;7.238;2023-06-19T06:04:08;3.37;;;2.73;;
7883;SDS011;3987;51.458;7.238;2023-06-19T06:19:08;2.37;;;2.20;;
7883;SDS011;3987;51.458;7.238;2023-06-19T06:34:08;2.43;;;2.33;;
7883;SDS011;3987;51.458;7.238;2023-06-19T06:49:09;2.73;;;2.53;;
7883;SDS011;3987;51.458;7.238;2023-06-19T07:04:09;2.53;;;2.43;;
7883;SDS011;3987;51.458;7.238;2023-06-19T07:19:11;2.43;;;2.17;;
7883;SDS011;3987;51.458;7.238;2023-06-19T07:34:12;2.30;;;2.10;;
7883;SDS011;3987;51.458;7.238;2023-06-19T07:49:13;4.23;;;2.27;;
7883;SDS011;3987;51.458;7.238;2023-06-19T08:04:14;2.80;;;2.50;;
7883;SDS011;3987;51.458;7.238;2023-06-19T08:19:14;2.60;;;2.50;;
7883;SDS011;3987;51.458;7.238;2023-06-19T08:34:15;2.77;;;2.67;;
7883;SDS011;3987;51.458;7.238;2023-06-19T08:49:15;2.70;;;2.60;;
7883;SDS011;3987;51.458;7.238;2023-06-19T09:04:18;1.60;;;1.50;;
7883;SDS011;3987;51.458;7.238;2023-06-19T09:19:20;1.90;;;1.80;;
7883;SDS011;3987;51.458;7.238;2023-06-19T09:34:21;2.40;;;2.20;;
7883;SDS011;3987;51.458;7.238;2023-06-19T09:49:21;2.30;;;2.00;;
7883;SDS011;3987;51.458;7.238;2023-06-19T10:04:24;2.43;;;2.33;;
7883;SDS011;3987;51.458;7.238;2023-06-19T10:19:24;3.37;;;2.50;;
7883;SDS011;3987;51.458;7.238;2023-06-19T10:34:32;3.20;;;2.63;;
7883;SDS011;3987;51.458;7.238;2023-06-19T10:49:34;3.00;;;2.83;;
7883;SDS011;3987;51.458;7.238;2023-06-19T11:04:37;3.47;;;3.27;;
7883;SDS011;3987;51.458;7.238;2023-06-19T11:19:38;3.60;;;3.23;;
7883;SDS011;3987;51.458;7.238;2023-06-19T11:34:42;3.10;;;3.00;;
7883;SDS011;3987;51.458;7.238;2023-06-19T12:04:50;5.37;;;3.27;;
7883;SDS011;3987;51.458;7.238;2023-06-19T12:19:51;4.73;;;3.40;;
7883;SDS011;3987;51.458;7.238;2023-06-19T12:34:53;3.73;;;3.50;;
7883;SDS011;3987;51.458;7.238;2023-06-19T12:49:54;5.90;;;3.20;;
7883;SDS011;3987;51.458;7.238;2023-06-19T13:04:54;4.60;;;3.37;;
7883;SDS011;3987;51.458;7.238;2023-06-19T13:19:55;4.20;;;3.97;;
7883;SDS011;3987;51.458;7.238;2023-06-19T13:34:56;3.70;;;3.50;;
7883;SDS011;3987;51.458;7.238;2023-06-19T13:49:56;4.60;;;4.17;;
7883;SDS011;3987;51.458;7.238;2023-06-19T14:04:56;3.50;;;3.40;;
7883;SDS011;3987;51.458;7.238;2023-06-19T14:19:57;4.43;;;4.07;;
7883;SDS011;3987;51.458;7.238;2023-06-19T14:34:57;4.30;;;4.10;;
7883;SDS011;3987;51.458;7.238;2023-06-19T14:49:58;4.10;;;4.00;;
7883;SDS011;3987;51.458;7.238;2023-06-19T15:04:58;3.73;;;3.63;;
7883;SDS011;3987;51.458;7.238;2023-06-19T15:19:58;3.60;;;3.50;;
7883;SDS011;3987;51.458;7.238;2023-06-19T15:34:59;3.90;;;3.70;;
7883;SDS011;3987;51.458;7.238;2023-06-19T15:50:00;3.47;;;3.37;;
7883;SDS011;3987;51.458;7.238;2023-06-19T16:05:00;3.60;;;3.50;;
7883;SDS011;3987;51.458;7.238;2023-06-19T16:20:01;3.40;;;3.20;;
7883;SDS011;3987;51.458;7.238;2023-06-19T16:35:01;3.27;;;3.27;;
7883;SDS011;3987;51.458;7.238;2023-06-19T16:50:02;3.67;;;3.33;;
7883;SDS011;3987;51.458;7.238;2023-06-19T17:05:02;3.80;;;3.53;;
7883;SDS011;3987;51.458;7.238;2023-06-19T17:20:03;3.53;;;3.33;;
7883;SDS011;3987;51.458;7.238;2023-06-19T17:35:05;3.17;;;3.07;;
7883;SDS011;3987;51.458;7.238;2023-06-19T17:50:09;2.97;;;2.97;;
7883;SDS011;3987;51.458;7.238;2023-06-19T18:05:11;3.07;;;2.97;;
7883;SDS011;3987;51.458;7.238;2023-06-19T18:20:12;3.00;;;2.90;;
7883;SDS011;3987;51.458;7.238;2023-06-19T18:35:12;3.30;;;3.10;;
7883;SDS011;3987;51.458;7.238;2023-06-19T18:50:13;3.60;;;3.30;;
7883;SDS011;3987;51.458;7.238;2023-06-19T19:05:14;3.50;;;3.30;;
7883;SDS011;3987;51.458;7.238;2023-06-19T19:20:14;4.10;;;3.90;;
7883;SDS011;3987;51.458;7.238;2023-06-19T19:35:15;4.10;;;3.90;;
7883;SDS011;3987;51.458;7.238;2023-06-19T19:50:15;4.07;;;3.87;;
7883;SDS011;3987;51.458;7.238;2023-06-19T20:05:16;4.00;;;3.90;;
7883;SDS011;3987;51.458;7.238;2023-06-19T20:20:16;4.93;;;4.73;;
7883;SDS011;3987;51.458;7.238;2023-06-19T20:35:19;6.40;;;6.00;;
7883;SDS011;3987;51.458;7.238;2023-06-19T20:50:22;5.50;;;5.20;;
7883;SDS011;3987;51.458;7.238;2023-06-19T21:05:23;6.07;;;5.70;;
7883;SDS011;3987;51.458;7.238;2023-06-19T21:20:23;5.97;;;5.83;;
7883;SDS011;3987;51.458;7.238;2023-06-19T21:35:24;6.47;;;6.07;;
7883;SDS011;3987;51.458;7.238;2023-06-19T21:50:26;6.93;;;6.63;;
7883;SDS011;3987;51.458;7.238;2023-06-19T22:05:27;6.40;;;6.10;;
7883;SDS011;3987;51.458;7.238;2023-06-19T22:20:28;6.70;;;6.30;;
7883;SDS011;3987;51.458;7.238;2023-06-19T22:35:29;6.67;;;6.40;;
7883;SDS011;3987;51.458;7.238;2023-06-19T22:50:30;7.03;;;6.73;;
7883;SDS011;3987;51.458;7.238;2023-06-19T23:05:30;6.67;;;6.30;;
7883;SDS011;3987;51.458;7.238;2023-06-19T23:20:33;6.17;;;5.97;;
7883;SDS011;3987;51.458;7.238;2023-06-19T23:35:33;6.70;;;6.33;;
7883;SDS011;3987;51.458;7.238;2023-06-19T23:50:34;6.93;;;6.60;;
